Main page
METAR-TAF:

METAR-TAF

Airports :

Dundee Airport

Dundee, Scotland

latitude: 56-27N, longitude: 003-01W, elevation: 4 m

Current weather observation

The report was made 15 hours and 19 minutes ago, at 15:50 UTC
Wind 16 kt from the West
Temperature 6°C
Humidity 87%
Pressure 1005 hPa
Visibility 10 km or more
Few clouds at a height of 4200 ft

METAR: EGPN 161550Z 26016KT 9999 FEW042 06/04 Q1005

Time: 07:09 (07:09 UTC)

Forecast

The report was made 17 hours and 14 minutes ago, at 13:55 UTC
Forecast valid from 16 at 15 UTC to 16 at 17 UTC
Wind 14 kt from the West/Southwest
Visibility 10 km or more
Few clouds at a height of 1500 ft
Scattered clouds at a height of 4000 ft

TAF: EGPN 161355Z 1615/1617 25014KT 9999 FEW015 SCT040

Weather observations and forecasts of more than 4000 airports (METAR and TAF reports).

The available stations are represented by yellow and red dots on the map.

Hover mouse over dot to see the name of the station.

Then click to see weather observations and forecasts.

To change the map : click on the green buttons with a black cross to zoom in, on the green button with a dash to zoom out, or on the green arrows for adjacent maps.


METAR-TAF: